Time;durP1;ratioP1;P1;durP2;ratioP2;P2;SDS_P1;SDS_P2;PMS_P1;PMS_P2;Temp;Humidity;BMP_temperature;BMP_pressure;BME280_temperature;BME280_humidity;BME280_pressure;Samples;Min_cycle;Max_cycle;Signal;HPM_P1;HPM_P2
2023/03/17 00:00:02;;;;;;;9.03;5.80;;;;;;;;;;5096348;28;20648;-90
2023/03/17 00:02:30;;;;;;;10.63;5.40;;;;;;;;;;5095818;28;20198;-91
2023/03/17 00:04:58;;;;;;;10.20;6.13;;;;;;;;;;5095449;28;20186;-91
2023/03/17 00:07:26;;;;;;;10.47;5.27;;;;;;;;;;5095698;28;20225;-91
2023/03/17 00:09:53;;;;;;;8.80;5.40;;;;;;;;;;5095574;28;20198;-90
2023/03/17 00:12:20;;;;;;;9.37;5.50;;;;;;;;;;5099886;28;20186;-90
2023/03/17 00:14:47;;;;;;;11.77;5.90;;;;;;;;;;5116003;28;20315;-91
2023/03/17 00:17:15;;;;;;;8.57;5.70;;;;;;;;;;5116225;28;20277;-89
2023/03/17 00:19:43;;;;;;;9.07;6.00;;;;;;;;;;5115859;28;20236;-90
2023/03/17 00:22:16;;;;;;;9.63;6.27;;;;;;;;;;5115906;28;20190;-90
2023/03/17 00:24:43;;;;;;;9.33;5.60;;;;;;;;;;5115263;28;20201;-90
2023/03/17 00:27:12;;;;;;;11.30;6.07;;;;;;;;;;5115829;28;20315;-91
2023/03/17 00:29:39;;;;;;;13.63;6.40;;;;;;;;;;5115617;28;20196;-90
2023/03/17 00:32:07;;;;;;;8.67;5.70;;;;;;;;;;5115820;28;20197;-91
2023/03/17 00:34:35;;;;;;;9.83;5.63;;;;;;;;;;5115369;28;20190;-90
2023/03/17 00:37:03;;;;;;;12.70;6.47;;;;;;;;;;5114371;28;20225;-89
2023/03/17 00:39:31;;;;;;;9.57;6.10;;;;;;;;;;5114975;28;20708;-90
2023/03/17 00:41:58;;;;;;;10.27;6.43;;;;;;;;;;5115443;28;20229;-90
2023/03/17 00:44:26;;;;;;;12.80;5.93;;;;;;;;;;5115338;28;20206;-90
2023/03/17 00:46:55;;;;;;;10.23;6.00;;;;;;;;;;5115498;28;20230;-90
2023/03/17 00:49:23;;;;;;;9.57;5.70;;;;;;;;;;5116752;28;20190;-90
2023/03/17 00:51:51;;;;;;;9.70;5.60;;;;;;;;;;5118233;28;20232;-91
2023/03/17 00:54:19;;;;;;;9.90;5.90;;;;;;;;;;5119060;28;20194;-91
2023/03/17 00:56:48;;;;;;;10.13;6.13;;;;;;;;;;5117867;28;20296;-90
2023/03/17 00:59:19;;;;;;;10.03;6.00;;;;;;;;;;5118596;28;20214;-90
2023/03/17 01:01:46;;;;;;;9.73;6.13;;;;;;;;;;5115528;28;20246;-90
2023/03/17 01:04:14;;;;;;;10.57;6.17;;;;;;;;;;5114651;28;20243;-90
2023/03/17 01:06:42;;;;;;;10.07;6.00;;;;;;;;;;5115301;28;20571;-89
2023/03/17 01:09:11;;;;;;;8.40;6.13;;;;;;;;;;5114224;28;20227;-91
2023/03/17 01:11:38;;;;;;;11.33;7.03;;;;;;;;;;5114828;28;20194;-90
2023/03/17 01:14:08;;;;;;;11.20;6.40;;;;;;;;;;5115088;28;20240;-91
2023/03/17 01:16:35;;;;;;;11.03;6.97;;;;;;;;;;5114939;28;20233;-90
2023/03/17 01:19:03;;;;;;;10.33;6.77;;;;;;;;;;5114671;28;20220;-89
2023/03/17 01:21:30;;;;;;;10.20;6.47;;;;;;;;;;5114649;28;20190;-90
2023/03/17 01:23:57;;;;;;;9.60;6.30;;;;;;;;;;5115190;28;20210;-90
2023/03/17 01:26:25;;;;;;;10.67;6.30;;;;;;;;;;5114943;28;20228;-90
2023/03/17 01:28:52;;;;;;;10.33;6.80;;;;;;;;;;5114919;28;20693;-90
2023/03/17 01:31:22;;;;;;;11.50;6.20;;;;;;;;;;5114561;28;20190;-90
2023/03/17 01:33:49;;;;;;;15.33;6.87;;;;;;;;;;5114465;28;20289;-91
2023/03/17 01:36:16;;;;;;;9.57;6.30;;;;;;;;;;5114389;28;20221;-90
2023/03/17 01:38:46;;;;;;;12.50;6.63;;;;;;;;;;5114303;28;20248;-90
2023/03/17 01:41:13;;;;;;;11.67;6.60;;;;;;;;;;5114898;28;20693;-91
2023/03/17 01:43:41;;;;;;;8.77;5.97;;;;;;;;;;5114867;28;20217;-91
2023/03/17 01:46:19;;;;;;;10.80;6.13;;;;;;;;;;5114312;28;20233;-91
2023/03/17 01:48:51;;;;;;;12.33;5.93;;;;;;;;;;5114291;28;20194;-90
2023/03/17 01:51:20;;;;;;;10.67;5.60;;;;;;;;;;5114073;28;20298;-90
2023/03/17 01:53:48;;;;;;;9.67;5.50;;;;;;;;;;5114327;28;20194;-91
2023/03/17 01:56:16;;;;;;;11.10;5.77;;;;;;;;;;5114195;28;20689;-90
2023/03/17 01:58:44;;;;;;;9.90;5.67;;;;;;;;;;5114490;28;20220;-90
2023/03/17 02:01:12;;;;;;;13.17;5.90;;;;;;;;;;5114096;28;20280;-90
2023/03/17 02:03:40;;;;;;;10.27;5.90;;;;;;;;;;5114681;28;20197;-90
2023/03/17 02:06:10;;;;;;;9.50;5.43;;;;;;;;;;5114190;28;20200;-90
2023/03/17 02:08:38;;;;;;;8.87;5.80;;;;;;;;;;5114413;28;20193;-91
2023/03/17 02:11:05;;;;;;;12.53;6.57;;;;;;;;;;5114703;28;20193;-90
2023/03/17 02:13:33;;;;;;;11.53;6.50;;;;;;;;;;5113882;28;20240;-89
2023/03/17 02:16:01;;;;;;;7.87;5.77;;;;;;;;;;5113833;28;20225;-90
2023/03/17 02:18:28;;;;;;;11.33;6.03;;;;;;;;;;5105717;28;20218;-91
2023/03/17 02:21:14;;;;;;;9.20;5.70;;;;;;;;;;5093408;28;20190;-91
2023/03/17 02:23:42;;;;;;;11.77;6.80;;;;;;;;;;5098067;28;20655;-90
2023/03/17 02:26:10;;;;;;;10.77;6.63;;;;;;;;;;5098088;28;20287;-90
2023/03/17 02:28:38;;;;;;;11.07;6.43;;;;;;;;;;5097481;28;20206;-91
2023/03/17 02:31:06;;;;;;;10.03;6.77;;;;;;;;;;5097728;28;20277;-91
2023/03/17 02:33:33;;;;;;;14.03;6.70;;;;;;;;;;5098138;28;20655;-90
2023/03/17 02:36:01;;;;;;;11.50;6.37;;;;;;;;;;5097070;28;20226;-91
2023/03/17 02:38:28;;;;;;;12.83;6.60;;;;;;;;;;5097706;28;20266;-90
2023/03/17 02:40:57;;;;;;;8.03;5.53;;;;;;;;;;5096974;28;20228;-89
2023/03/17 02:43:24;;;;;;;12.00;6.00;;;;;;;;;;5097698;28;20197;-90
2023/03/17 02:45:51;;;;;;;9.63;6.07;;;;;;;;;;5097589;28;20254;-91
2023/03/17 02:48:18;;;;;;;8.63;6.50;;;;;;;;;;5099896;28;20240;-89
2023/03/17 02:50:45;;;;;;;8.40;5.63;;;;;;;;;;5100906;28;20218;-90
2023/03/17 02:53:13;;;;;;;8.93;5.60;;;;;;;;;;5099977;28;20233;-89
2023/03/17 02:55:40;;;;;;;9.57;5.67;;;;;;;;;;5098792;28;20210;-88
2023/03/17 02:58:09;;;;;;;11.07;5.63;;;;;;;;;;5099381;28;20230;-90
2023/03/17 03:00:37;;;;;;;9.57;5.83;;;;;;;;;;5097807;28;20225;-90
2023/03/17 03:03:04;;;;;;;10.23;5.97;;;;;;;;;;5095840;28;20209;-89
2023/03/17 03:05:32;;;;;;;8.77;5.67;;;;;;;;;;5095115;28;20200;-91
2023/03/17 03:07:59;;;;;;;10.73;5.93;;;;;;;;;;5095999;28;20726;-91
2023/03/17 03:10:26;;;;;;;10.50;5.53;;;;;;;;;;5096585;28;20719;-92
2023/03/17 03:12:53;;;;;;;9.77;5.70;;;;;;;;;;5105941;28;20678;-91
2023/03/17 03:15:22;;;;;;;9.20;5.50;;;;;;;;;;5117174;28;20198;-91
2023/03/17 03:17:49;;;;;;;15.07;5.90;;;;;;;;;;5117002;28;20320;-91
2023/03/17 03:20:17;;;;;;;11.20;5.53;;;;;;;;;;5116858;28;20206;-91
2023/03/17 03:22:44;;;;;;;10.37;5.80;;;;;;;;;;5116646;28;20277;-90
2023/03/17 03:25:11;;;;;;;9.67;5.10;;;;;;;;;;5116506;28;20198;-91
2023/03/17 03:27:38;;;;;;;10.57;5.20;;;;;;;;;;5116935;28;20240;-92
2023/03/17 03:30:07;;;;;;;8.90;5.13;;;;;;;;;;5117343;28;20334;-90
2023/03/17 03:32:36;;;;;;;11.47;5.60;;;;;;;;;;5116407;28;20576;-92
2023/03/17 03:35:03;;;;;;;9.40;5.27;;;;;;;;;;5117136;28;20198;-91
2023/03/17 03:37:31;;;;;;;10.10;5.23;;;;;;;;;;5116138;28;20227;-91
2023/03/17 03:39:58;;;;;;;8.73;4.93;;;;;;;;;;5115924;28;20654;-91
2023/03/17 03:42:25;;;;;;;8.10;5.20;;;;;;;;;;5116786;28;20633;-90
2023/03/17 03:44:52;;;;;;;8.50;4.93;;;;;;;;;;5116604;27;20618;-92
2023/03/17 03:47:19;;;;;;;8.40;5.10;;;;;;;;;;5115920;28;20233;-91
2023/03/17 03:49:48;;;;;;;8.80;5.30;;;;;;;;;;5116909;28;20220;-91
2023/03/17 03:52:15;;;;;;;11.43;5.73;;;;;;;;;;5116748;28;20220;-92
2023/03/17 03:54:42;;;;;;;9.83;4.90;;;;;;;;;;5116334;28;20613;-90
2023/03/17 03:57:10;;;;;;;9.23;5.50;;;;;;;;;;5116057;28;20312;-91
2023/03/17 03:59:37;;;;;;;10.00;5.50;;;;;;;;;;5116309;28;20213;-91
2023/03/17 04:02:05;;;;;;;8.87;4.80;;;;;;;;;;5115785;28;20193;-91
2023/03/17 04:04:33;;;;;;;8.17;4.97;;;;;;;;;;5116453;28;20225;-91
2023/03/17 04:07:01;;;;;;;11.37;5.03;;;;;;;;;;5115799;28;20224;-91
2023/03/17 04:09:28;;;;;;;9.87;4.93;;;;;;;;;;5116095;28;20215;-91
2023/03/17 04:11:56;;;;;;;7.93;4.90;;;;;;;;;;5116216;28;20727;-92
2023/03/17 04:14:23;;;;;;;9.77;5.53;;;;;;;;;;5116353;28;20198;-91
2023/03/17 04:16:50;;;;;;;10.53;5.73;;;;;;;;;;5115357;28;20367;-92
2023/03/17 04:19:17;;;;;;;12.20;5.40;;;;;;;;;;5115867;28;20215;-91
2023/03/17 04:21:45;;;;;;;10.50;5.50;;;;;;;;;;5116141;28;20214;-91
2023/03/17 04:24:13;;;;;;;8.73;5.47;;;;;;;;;;5115793;28;20201;-91
2023/03/17 04:26:41;;;;;;;8.47;5.37;;;;;;;;;;5115511;27;20193;-91
2023/03/17 04:29:09;;;;;;;8.00;5.10;;;;;;;;;;5115962;28;20186;-91
2023/03/17 04:31:38;;;;;;;8.13;5.33;;;;;;;;;;5115361;28;20193;-90
2023/03/17 04:34:05;;;;;;;11.57;5.43;;;;;;;;;;5115498;28;20721;-91
2023/03/17 04:36:33;;;;;;;8.80;5.27;;;;;;;;;;5115708;28;20243;-90
2023/03/17 04:39:01;;;;;;;10.97;5.83;;;;;;;;;;5115438;28;20193;-91
2023/03/17 04:41:29;;;;;;;8.57;5.63;;;;;;;;;;5115691;28;20185;-91
2023/03/17 04:43:57;;;;;;;6.10;5.00;;;;;;;;;;5118138;28;20182;-90
2023/03/17 04:46:24;;;;;;;9.07;5.50;;;;;;;;;;5119343;28;20252;-91
2023/03/17 04:48:51;;;;;;;7.63;5.10;;;;;;;;;;5118579;28;20251;-91
2023/03/17 04:51:19;;;;;;;8.30;5.60;;;;;;;;;;5118512;28;20198;-90
2023/03/17 04:53:46;;;;;;;11.30;6.00;;;;;;;;;;5119453;28;20220;-91
2023/03/17 04:56:14;;;;;;;9.87;5.73;;;;;;;;;;5116124;28;20186;-91
2023/03/17 04:58:43;;;;;;;8.97;6.10;;;;;;;;;;5115569;28;20201;-91
2023/03/17 05:01:10;;;;;;;9.63;6.13;;;;;;;;;;5115277;28;20232;-93
2023/03/17 05:03:37;;;;;;;11.03;6.50;;;;;;;;;;5115500;28;20235;-92
2023/03/17 05:06:05;;;;;;;8.73;6.03;;;;;;;;;;5115373;28;20225;-91
2023/03/17 05:08:32;;;;;;;12.73;6.93;;;;;;;;;;5115169;28;20284;-91
2023/03/17 05:11:00;;;;;;;10.63;6.70;;;;;;;;;;5114963;28;20209;-91
2023/03/17 05:13:27;;;;;;;10.03;7.10;;;;;;;;;;5100025;28;20221;-90
2023/03/17 05:15:56;;;;;;;9.83;6.33;;;;;;;;;;5094211;28;20289;-91
2023/03/17 05:18:26;;;;;;;11.63;6.80;;;;;;;;;;5094030;28;20287;-91
2023/03/17 05:20:54;;;;;;;10.37;7.30;;;;;;;;;;5094716;28;20259;-90
2023/03/17 05:23:21;;;;;;;11.33;6.70;;;;;;;;;;5094469;28;20248;-91
2023/03/17 05:25:48;;;;;;;12.03;6.77;;;;;;;;;;5094170;28;20662;-90
2023/03/17 05:28:15;;;;;;;9.87;6.30;;;;;;;;;;5094599;28;20232;-92
2023/03/17 05:30:43;;;;;;;9.33;6.87;;;;;;;;;;5093433;28;20279;-90
2023/03/17 05:33:11;;;;;;;9.87;6.50;;;;;;;;;;5093820;28;20629;-91
2023/03/17 05:35:39;;;;;;;9.27;7.07;;;;;;;;;;5094506;28;20214;-90
2023/03/17 05:38:07;;;;;;;10.43;6.50;;;;;;;;;;5093636;28;20233;-90
2023/03/17 05:40:35;;;;;;;11.57;7.07;;;;;;;;;;5094326;28;20202;-93
2023/03/17 05:43:03;;;;;;;9.50;6.43;;;;;;;;;;5094528;28;20224;-91
2023/03/17 05:45:30;;;;;;;8.67;6.47;;;;;;;;;;5093394;28;20244;-91
2023/03/17 05:47:57;;;;;;;10.60;7.00;;;;;;;;;;5094197;28;20215;-92
2023/03/17 05:50:26;;;;;;;10.57;6.87;;;;;;;;;;5094207;28;20630;-92
2023/03/17 05:52:53;;;;;;;8.80;6.77;;;;;;;;;;5093938;28;20217;-92
2023/03/17 05:55:21;;;;;;;11.87;7.07;;;;;;;;;;5094770;28;20218;-92
2023/03/17 05:57:48;;;;;;;13.40;7.83;;;;;;;;;;5097801;28;20297;-92
2023/03/17 06:00:17;;;;;;;11.23;7.10;;;;;;;;;;5098302;28;20226;-91
2023/03/17 06:02:45;;;;;;;13.00;6.80;;;;;;;;;;5098067;28;20237;-92
2023/03/17 06:05:12;;;;;;;9.73;6.03;;;;;;;;;;5109804;28;20289;-90
2023/03/17 06:07:41;;;;;;;10.90;6.63;;;;;;;;;;5117838;28;20225;-92
2023/03/17 06:10:09;;;;;;;8.03;6.83;;;;;;;;;;5118216;28;20217;-88
2023/03/17 06:12:37;;;;;;;10.17;6.57;;;;;;;;;;5117605;28;20205;-91
2023/03/17 06:15:04;;;;;;;10.77;7.30;;;;;;;;;;5118976;28;20194;-92
2023/03/17 06:17:31;;;;;;;10.90;6.00;;;;;;;;;;5118400;28;20291;-90
2023/03/17 06:19:59;;;;;;;9.50;6.30;;;;;;;;;;5118598;27;20232;-91
2023/03/17 06:22:26;;;;;;;11.13;6.17;;;;;;;;;;5124695;28;20193;-91
2023/03/17 06:24:55;;;;;;;9.80;6.00;;;;;;;;;;5124484;28;20197;-92
2023/03/17 06:27:22;;;;;;;10.93;6.50;;;;;;;;;;5123044;28;20771;-89
2023/03/17 06:29:49;;;;;;;9.43;6.00;;;;;;;;;;5121220;28;20662;-89
2023/03/17 06:32:16;;;;;;;9.80;6.27;;;;;;;;;;5117352;28;20666;-90
2023/03/17 06:34:43;;;;;;;9.73;5.57;;;;;;;;;;5120573;28;20701;-91
2023/03/17 06:37:11;;;;;;;12.53;6.03;;;;;;;;;;5116720;28;20278;-85
2023/03/17 06:39:40;;;;;;;10.37;5.97;;;;;;;;;;5118146;28;20330;-89
2023/03/17 06:42:09;;;;;;;12.40;6.03;;;;;;;;;;5122073;28;20680;-92
2023/03/17 06:44:36;;;;;;;11.57;6.20;;;;;;;;;;5123422;27;20193;-91
2023/03/17 06:47:04;;;;;;;9.97;6.47;;;;;;;;;;5117401;28;20213;-91
2023/03/17 06:49:31;;;;;;;8.07;6.10;;;;;;;;;;5114387;28;20205;-92
2023/03/17 06:51:59;;;;;;;8.33;5.70;;;;;;;;;;5121007;28;20603;-91
2023/03/17 06:54:27;;;;;;;5.97;5.33;;;;;;;;;;5119109;28;20566;-91
2023/03/17 06:56:55;;;;;;;10.73;6.50;;;;;;;;;;5120137;28;20653;-92
2023/03/17 06:59:23;;;;;;;9.57;6.20;;;;;;;;;;5118633;28;20267;-92
2023/03/17 07:01:51;;;;;;;9.17;6.03;;;;;;;;;;5128415;28;20186;-91
2023/03/17 07:04:18;;;;;;;9.07;5.60;;;;;;;;;;5126955;28;20853;-91
2023/03/17 07:06:45;;;;;;;11.07;5.67;;;;;;;;;;5115965;28;20749;-93
2023/03/17 07:09:14;;;;;;;9.07;5.70;;;;;;;;;;5116705;28;20285;-91
2023/03/17 07:11:41;;;;;;;9.10;5.20;;;;;;;;;;5117109;28;20242;-92
2023/03/17 07:14:08;;;;;;;9.73;5.30;;;;;;;;;;5117023;28;20186;-92
2023/03/17 07:16:37;;;;;;;10.83;5.70;;;;;;;;;;5117482;28;20628;-90
2023/03/17 07:19:06;;;;;;;9.77;5.53;;;;;;;;;;5117414;28;20316;-89
2023/03/17 07:21:33;;;;;;;12.30;5.77;;;;;;;;;;5130904;28;20206;-91
2023/03/17 07:24:00;;;;;;;10.70;6.50;;;;;;;;;;5124840;28;20194;-92
2023/03/17 07:26:27;;;;;;;10.27;6.33;;;;;;;;;;5117263;28;20284;-91
2023/03/17 07:28:55;;;;;;;10.33;6.70;;;;;;;;;;5117916;28;20185;-91
2023/03/17 07:31:23;;;;;;;11.00;6.13;;;;;;;;;;5117356;28;20212;-91
2023/03/17 07:33:52;;;;;;;8.87;5.87;;;;;;;;;;5117284;28;20286;-92
2023/03/17 07:36:19;;;;;;;9.77;5.47;;;;;;;;;;5117260;28;20226;-91
2023/03/17 07:38:47;;;;;;;8.67;5.30;;;;;;;;;;5117220;28;20268;-92
2023/03/17 07:41:14;;;;;;;10.17;5.77;;;;;;;;;;5116674;28;20643;-91
2023/03/17 07:43:42;;;;;;;12.97;5.43;;;;;;;;;;5117546;28;20678;-91
2023/03/17 07:46:09;;;;;;;9.10;5.37;;;;;;;;;;5117023;28;20278;-91
2023/03/17 07:48:40;;;;;;;8.47;5.23;;;;;;;;;;5114332;28;20218;-84
2023/03/17 07:51:09;;;;;;;9.57;5.30;;;;;;;;;;5114387;28;20608;-84
2023/03/17 07:53:36;;;;;;;9.47;4.83;;;;;;;;;;5114285;28;20197;-85
2023/03/17 07:56:04;;;;;;;10.27;5.17;;;;;;;;;;5114028;28;20288;-83
2023/03/17 07:58:31;;;;;;;8.90;4.77;;;;;;;;;;5114500;28;20320;-84
2023/03/17 08:00:58;;;;;;;9.13;4.83;;;;;;;;;;5113567;28;20715;-84
2023/03/17 08:03:26;;;;;;;11.27;5.33;;;;;;;;;;5113149;28;20216;-84
2023/03/17 08:05:54;;;;;;;8.70;4.90;;;;;;;;;;5113977;28;20274;-84
2023/03/17 08:08:23;;;;;;;9.50;5.00;;;;;;;;;;5113376;28;20654;-84
2023/03/17 08:10:50;;;;;;;8.73;4.70;;;;;;;;;;5113230;28;20241;-84
2023/03/17 08:13:18;;;;;;;10.10;5.03;;;;;;;;;;5113413;28;20294;-84
2023/03/17 08:15:46;;;;;;;7.40;4.93;;;;;;;;;;5113527;28;20723;-84
2023/03/17 08:18:13;;;;;;;6.83;4.83;;;;;;;;;;5113335;27;20587;-82
2023/03/17 08:20:40;;;;;;;7.43;4.80;;;;;;;;;;5112923;28;20293;-84
2023/03/17 08:23:08;;;;;;;10.47;5.47;;;;;;;;;;5113205;28;20198;-84
2023/03/17 08:25:36;;;;;;;11.37;5.27;;;;;;;;;;5113337;28;20205;-83
2023/03/17 08:28:04;;;;;;;8.50;5.40;;;;;;;;;;5113125;28;20205;-85
2023/03/17 08:30:31;;;;;;;11.37;8.03;;;;;;;;;;5113182;28;20307;-84
2023/03/17 08:32:58;;;;;;;11.47;7.60;;;;;;;;;;5113068;28;20661;-85
2023/03/17 08:35:26;;;;;;;13.40;7.07;;;;;;;;;;5113136;28;20241;-84
2023/03/17 08:37:53;;;;;;;13.17;7.83;;;;;;;;;;5112104;28;20602;-85
2023/03/17 08:40:20;;;;;;;11.03;7.27;;;;;;;;;;5113248;28;20209;-84
2023/03/17 08:42:49;;;;;;;9.63;4.93;;;;;;;;;;5113044;28;20234;-84
2023/03/17 08:45:20;;;;;;;10.63;4.40;;;;;;;;;;5112355;28;20830;-84
2023/03/17 08:47:47;;;;;;;8.37;4.47;;;;;;;;;;5092369;28;20708;-83
2023/03/17 08:50:17;;;;;;;7.10;4.37;;;;;;;;;;5092577;28;20205;-85
2023/03/17 08:52:44;;;;;;;11.67;4.47;;;;;;;;;;5091928;28;20194;-87
2023/03/17 08:55:12;;;;;;;9.93;4.43;;;;;;;;;;5093158;28;20198;-86
2023/03/17 08:57:39;;;;;;;6.13;4.13;;;;;;;;;;5093577;28;20221;-87
2023/03/17 09:00:10;;;;;;;8.17;4.67;;;;;;;;;;5093429;28;20191;-86
2023/03/17 09:02:37;;;;;;;8.43;4.67;;;;;;;;;;5093339;28;20218;-86
2023/03/17 09:05:05;;;;;;;9.57;5.10;;;;;;;;;;5092696;28;20289;-84
2023/03/17 09:07:32;;;;;;;7.00;4.33;;;;;;;;;;5092384;28;20268;-84
2023/03/17 09:10:02;;;;;;;6.67;4.50;;;;;;;;;;5092800;28;20198;-85
2023/03/17 09:12:30;;;;;;;8.10;4.20;;;;;;;;;;5099018;28;20202;-85
2023/03/17 09:14:57;;;;;;;7.73;4.40;;;;;;;;;;5113100;28;20247;-86
2023/03/17 09:17:26;;;;;;;10.17;5.07;;;;;;;;;;5112284;28;20240;-85
2023/03/17 09:19:53;;;;;;;7.90;4.23;;;;;;;;;;5112797;28;20225;-86
2023/03/17 09:22:20;;;;;;;6.00;4.00;;;;;;;;;;5112691;28;20224;-85
2023/03/17 09:24:47;;;;;;;6.90;4.30;;;;;;;;;;5112946;28;20280;-84
2023/03/17 09:27:15;;;;;;;7.63;4.17;;;;;;;;;;5112775;28;20286;-87
2023/03/17 09:29:42;;;;;;;7.30;4.03;;;;;;;;;;5112275;28;20231;-87
2023/03/17 09:32:10;;;;;;;7.17;4.10;;;;;;;;;;5112459;28;20284;-86
2023/03/17 09:34:38;;;;;;;9.03;4.40;;;;;;;;;;5112312;28;20203;-86
2023/03/17 09:37:05;;;;;;;12.23;5.37;;;;;;;;;;5112284;28;20213;-85
2023/03/17 09:39:33;;;;;;;9.73;4.13;;;;;;;;;;5111946;28;20271;-85
2023/03/17 09:42:09;;;;;;;11.70;4.57;;;;;;;;;;5112101;28;20194;-86
2023/03/17 09:44:51;;;;;;;9.50;4.03;;;;;;;;;;5112580;28;20272;-86
2023/03/17 09:47:29;;;;;;;6.43;4.43;;;;;;;;;;5109577;28;20302;-86
2023/03/17 09:49:59;;;;;;;12.17;4.23;;;;;;;;;;5099374;28;20225;-85
2023/03/17 09:52:28;;;;;;;7.73;3.50;;;;;;;;;;5112584;28;20198;-86
2023/03/17 09:54:57;;;;;;;8.13;3.13;;;;;;;;;;5112564;28;20255;-86
2023/03/17 09:57:26;;;;;;;7.90;3.03;;;;;;;;;;5112385;28;20186;-87
2023/03/17 10:00:00;;;;;;;7.57;3.35;;;;;;;;;;5112224;28;20312;-86
2023/03/17 10:02:29;;;;;;;8.80;3.30;;;;;;;;;;5112315;28;20243;-86
2023/03/17 10:04:58;;;;;;;6.95;3.47;;;;;;;;;;5111838;28;20303;-86
2023/03/17 10:07:28;;;;;;;6.05;3.45;;;;;;;;;;5112080;28;20719;-87
2023/03/17 10:10:00;;;;;;;8.32;3.40;;;;;;;;;;5111954;28;20572;-85
2023/03/17 10:12:31;;;;;;;6.85;3.45;;;;;;;;;;5111928;28;20224;-87
2023/03/17 10:15:01;;;;;;;8.40;3.40;;;;;;;;;;5091960;28;20191;-86
2023/03/17 10:17:29;;;;;;;9.57;3.70;;;;;;;;;;5091647;28;20660;-86
2023/03/17 10:20:00;;;;;;;10.15;4.05;;;;;;;;;;5091413;28;20264;-86
2023/03/17 10:22:29;;;;;;;6.32;3.80;;;;;;;;;;5091507;28;20229;-85
2023/03/17 10:25:00;;;;;;;7.28;3.67;;;;;;;;;;5091733;28;20223;-85
2023/03/17 10:27:28;;;;;;;10.30;3.80;;;;;;;;;;5091967;28;20226;-86
2023/03/17 10:29:55;;;;;;;7.82;3.55;;;;;;;;;;5097601;28;20319;-86
2023/03/17 10:32:23;;;;;;;9.68;3.85;;;;;;;;;;5112169;28;20202;-86
2023/03/17 10:34:50;;;;;;;6.85;3.92;;;;;;;;;;5111773;28;20222;-87
2023/03/17 10:37:20;;;;;;;7.80;3.80;;;;;;;;;;5112046;28;20202;-87
2023/03/17 10:39:49;;;;;;;7.55;3.50;;;;;;;;;;5111587;28;20721;-87
2023/03/17 10:42:22;;;;;;;6.78;3.42;;;;;;;;;;5112209;28;20194;-87
2023/03/17 10:44:50;;;;;;;6.63;3.50;;;;;;;;;;5115541;28;20296;-85
2023/03/17 10:47:36;;;;;;;8.57;3.17;;;;;;;;;;5115772;28;20201;-87
2023/03/17 10:50:05;;;;;;;7.80;3.30;;;;;;;;;;5115858;28;20185;-88
2023/03/17 10:52:37;;;;;;;6.57;3.33;;;;;;;;;;5115865;28;20200;-86
2023/03/17 10:55:05;;;;;;;7.13;3.22;;;;;;;;;;5115924;28;20221;-86
2023/03/17 10:57:33;;;;;;;5.47;3.30;;;;;;;;;;5115432;28;20243;-85
2023/03/17 11:00:03;;;;;;;7.65;3.65;;;;;;;;;;5114889;28;20793;-86
2023/03/17 11:02:35;;;;;;;7.95;3.00;;;;;;;;;;5114407;28;20284;-83
2023/03/17 11:05:04;;;;;;;8.70;3.50;;;;;;;;;;5115092;28;20654;-86
2023/03/17 11:07:38;;;;;;;6.30;3.10;;;;;;;;;;5115148;28;20610;-85
2023/03/17 11:10:14;;;;;;;4.75;2.90;;;;;;;;;;5114955;28;20248;-85
2023/03/17 11:12:42;;;;;;;7.65;3.38;;;;;;;;;;5114509;28;20305;-85
2023/03/17 11:15:12;;;;;;;8.77;3.83;;;;;;;;;;5115173;28;20189;-85
2023/03/17 11:17:43;;;;;;;6.80;3.28;;;;;;;;;;5113847;28;20229;-84
2023/03/17 11:20:21;;;;;;;8.68;3.00;;;;;;;;;;5114493;28;20278;-85
2023/03/17 11:22:53;;;;;;;5.97;3.17;;;;;;;;;;5114734;28;20240;-85
2023/03/17 11:25:22;;;;;;;6.85;3.70;;;;;;;;;;5114796;28;20288;-85
2023/03/17 11:27:52;;;;;;;7.28;3.92;;;;;;;;;;5114948;28;20659;-84
2023/03/17 11:30:25;;;;;;;5.97;3.47;;;;;;;;;;5114865;28;20193;-85
2023/03/17 11:32:56;;;;;;;8.25;3.97;;;;;;;;;;5114057;28;20259;-84
2023/03/17 11:35:29;;;;;;;5.80;2.90;;;;;;;;;;5114376;28;20251;-85
2023/03/17 11:38:05;;;;;;;7.78;3.40;;;;;;;;;;5114618;28;20228;-85
2023/03/17 11:40:34;;;;;;;7.50;3.20;;;;;;;;;;5114272;28;20300;-84
2023/03/17 11:43:08;;;;;;;5.97;2.55;;;;;;;;;;5114358;28;20225;-84
2023/03/17 11:45:38;;;;;;;5.60;2.45;;;;;;;;;;5114571;28;20272;-85
2023/03/17 11:48:13;;;;;;;5.88;2.42;;;;;;;;;;5114551;28;20269;-85
2023/03/17 11:50:46;;;;;;;5.80;2.55;;;;;;;;;;5114297;28;20615;-85
2023/03/17 11:53:22;;;;;;;5.00;2.83;;;;;;;;;;5114047;28;20277;-85
2023/03/17 11:55:50;;;;;;;7.15;2.45;;;;;;;;;;5114275;28;20217;-84
2023/03/17 11:58:23;;;;;;;4.55;2.35;;;;;;;;;;5114617;28;20284;-83
2023/03/17 12:00:53;;;;;;;5.95;1.90;;;;;;;;;;5113275;28;20283;-84
2023/03/17 12:03:22;;;;;;;4.68;2.08;;;;;;;;;;5114125;28;20190;-85
2023/03/17 12:05:53;;;;;;;4.80;2.08;;;;;;;;;;5113901;28;20253;-84
2023/03/17 12:08:24;;;;;;;7.22;2.20;;;;;;;;;;5110764;28;20286;-83
2023/03/17 12:10:54;;;;;;;5.43;1.88;;;;;;;;;;5099465;28;20226;-83
2023/03/17 12:13:24;;;;;;;5.15;1.95;;;;;;;;;;5104980;28;20194;-86
2023/03/17 12:15:53;;;;;;;4.93;1.63;;;;;;;;;;5109253;27;20583;-85
2023/03/17 12:18:24;;;;;;;4.53;2.10;;;;;;;;;;5097983;28;20228;-84
2023/03/17 12:20:53;;;;;;;5.35;2.03;;;;;;;;;;5111456;28;20249;-84
2023/03/17 12:23:28;;;;;;;4.97;2.00;;;;;;;;;;5111030;28;20590;-84
2023/03/17 12:25:59;;;;;;;5.95;2.28;;;;;;;;;;5112533;28;20684;-84
2023/03/17 12:28:27;;;;;;;5.45;2.03;;;;;;;;;;5111930;28;20198;-84
2023/03/17 12:30:56;;;;;;;4.13;2.03;;;;;;;;;;5112498;28;20276;-84
2023/03/17 12:33:28;;;;;;;5.75;1.77;;;;;;;;;;5112214;28;20222;-80
2023/03/17 12:35:55;;;;;;;3.15;1.50;;;;;;;;;;5111556;28;20725;-84
2023/03/17 12:38:28;;;;;;;4.57;1.23;;;;;;;;;;5112503;28;20262;-83
2023/03/17 12:41:06;;;;;;;3.63;1.20;;;;;;;;;;5115514;28;20213;-84
2023/03/17 12:43:39;;;;;;;3.55;1.35;;;;;;;;;;5112133;28;20220;-84
2023/03/17 12:46:24;;;;;;;4.00;1.50;;;;;;;;;;5110413;28;20230;-85
2023/03/17 12:49:15;;;;;;;4.70;1.50;;;;;;;;;;5112813;27;20196;-85
2023/03/17 12:51:56;;;;;;;5.68;1.38;;;;;;;;;;5109315;27;20212;-85
2023/03/17 12:54:28;;;;;;;4.40;1.10;;;;;;;;;;5132985;27;20284;-85
2023/03/17 12:57:00;;;;;;;4.40;1.35;;;;;;;;;;5132907;27;20228;-85
2023/03/17 12:59:30;;;;;;;2.92;1.20;;;;;;;;;;5132484;27;20256;-85
2023/03/17 13:01:58;;;;;;;4.15;1.75;;;;;;;;;;5133187;27;20257;-85
2023/03/17 13:04:26;;;;;;;6.03;1.70;;;;;;;;;;5133102;27;20195;-84
2023/03/17 13:07:00;;;;;;;4.07;1.60;;;;;;;;;;5132197;27;20201;-84
2023/03/17 13:09:51;;;;;;;2.83;1.30;;;;;;;;;;5131934;27;20292;-83
2023/03/17 13:12:51;;;;;;;4.03;1.50;;;;;;;;;;5107871;27;20206;-85
2023/03/17 13:15:26;;;;;;;4.95;1.35;;;;;;;;;;5080408;28;20223;-85
2023/03/17 13:18:11;;;;;;;3.45;1.30;;;;;;;;;;5075065;28;20202;-84
2023/03/17 13:20:39;;;;;;;4.35;1.15;;;;;;;;;;5086801;28;20329;-85
2023/03/17 13:23:13;;;;;;;4.50;1.33;;;;;;;;;;5079511;28;20734;-84
2023/03/17 13:25:52;;;;;;;3.53;0.95;;;;;;;;;;5077904;28;20686;-83
2023/03/17 13:28:26;;;;;;;3.20;1.02;;;;;;;;;;5069571;28;20575;-83
2023/03/17 13:31:08;;;;;;;4.57;1.35;;;;;;;;;;5089379;28;20647;-84
2023/03/17 13:33:36;;;;;;;5.93;1.33;;;;;;;;;;5089839;28;20201;-83
2023/03/17 13:36:17;;;;;;;4.38;1.35;;;;;;;;;;5089956;28;20252;-84
2023/03/17 13:38:53;;;;;;;3.58;1.30;;;;;;;;;;5089505;28;20275;-85
2023/03/17 13:41:32;;;;;;;3.28;1.10;;;;;;;;;;5081384;28;20309;-86
2023/03/17 13:44:11;;;;;;;3.67;1.02;;;;;;;;;;5069005;28;20286;-84
2023/03/17 13:46:47;;;;;;;3.60;1.23;;;;;;;;;;5083700;28;20313;-83
2023/03/17 13:49:16;;;;;;;3.63;1.10;;;;;;;;;;5091739;28;20205;-84
2023/03/17 13:51:45;;;;;;;4.85;1.20;;;;;;;;;;5091461;28;20217;-82
2023/03/17 13:54:21;;;;;;;3.05;0.95;;;;;;;;;;5091717;28;20234;-83
2023/03/17 13:56:50;;;;;;;5.78;1.02;;;;;;;;;;5092979;28;20201;-84
2023/03/17 13:59:18;;;;;;;2.45;0.90;;;;;;;;;;5112321;28;20205;-84
2023/03/17 14:01:49;;;;;;;4.38;1.00;;;;;;;;;;5111915;28;20236;-83
2023/03/17 14:04:19;;;;;;;3.80;0.77;;;;;;;;;;5111929;28;20650;-84
2023/03/17 14:06:49;;;;;;;2.20;1.13;;;;;;;;;;5111539;28;20611;-84
2023/03/17 14:09:22;;;;;;;4.20;1.00;;;;;;;;;;5111716;28;20573;-83
2023/03/17 14:11:51;;;;;;;3.90;1.10;;;;;;;;;;5111835;28;20221;-82
2023/03/17 14:14:22;;;;;;;5.22;1.05;;;;;;;;;;5111782;28;20586;-83
2023/03/17 14:16:55;;;;;;;6.15;1.17;;;;;;;;;;5112751;28;20622;-84
2023/03/17 14:19:25;;;;;;;3.83;1.48;;;;;;;;;;5114023;28;20205;-83
2023/03/17 14:21:52;;;;;;;4.18;1.00;;;;;;;;;;5113723;28;20292;-83
2023/03/17 14:24:21;;;;;;;4.30;0.98;;;;;;;;;;5114804;27;20225;-83
2023/03/17 14:26:49;;;;;;;4.85;0.90;;;;;;;;;;5117591;27;20194;-83
2023/03/17 14:29:18;;;;;;;5.93;1.00;;;;;;;;;;5110054;28;20194;-83
2023/03/17 14:31:48;;;;;;;3.35;0.90;;;;;;;;;;5096088;28;20693;-86
2023/03/17 14:34:17;;;;;;;3.50;1.27;;;;;;;;;;5113078;27;20198;-83
2023/03/17 14:36:44;;;;;;;4.50;1.10;;;;;;;;;;5115064;28;20281;-84
2023/03/17 14:39:22;;;;;;;5.22;1.20;;;;;;;;;;5115228;28;20637;-83
2023/03/17 14:41:58;;;;;;;4.70;1.08;;;;;;;;;;5115340;28;20190;-84
2023/03/17 14:44:25;;;;;;;6.07;1.25;;;;;;;;;;5114870;28;20198;-84
2023/03/17 14:47:01;;;;;;;5.05;1.17;;;;;;;;;;5112168;28;20281;-82
2023/03/17 14:49:30;;;;;;;8.35;1.25;;;;;;;;;;5115794;27;20194;-84